Time;durP1;ratioP1;P1;durP2;ratioP2;P2;SDS_P1;SDS_P2;PMS_P1;PMS_P2;Temp;Humidity;BMP_temperature;BMP_pressure;BME280_temperature;BME280_humidity;BME280_pressure;Samples;Min_cycle;Max_cycle;Signal;HPM_P1;HPM_P2
2022/01/18 00:00:19;;;;;;;3.22;1.35;;;;;;;3.60;47.86;100889.22;4379521;32;32756;-85
2022/01/18 00:02:47;;;;;;;6.28;1.80;;;;;;;3.27;49.00;100900.44;4391966;32;33362;-86
2022/01/18 00:05:16;;;;;;;2.12;0.88;;;;;;;3.40;48.63;100886.56;4395651;32;32415;-85
2022/01/18 00:07:45;;;;;;;3.80;1.30;;;;;;;3.11;49.46;100886.47;4395907;32;33125;-84
2022/01/18 00:10:14;;;;;;;3.55;1.48;;;;;;;3.36;49.00;100890.03;4396096;32;34165;-85
2022/01/18 00:18:09;;;;;;;2.37;0.88;;;;;;;3.41;48.71;100908.31;4394106;32;34725;-85
2022/01/18 00:23:38;;;;;;;5.15;1.27;;;;;;;3.45;48.21;100912.69;4396278;32;33211;-85
2022/01/18 00:26:10;;;;;;;3.92;0.90;;;;;;;3.20;49.10;100919.56;4409888;32;34171;-85
2022/01/18 00:28:38;;;;;;;2.35;0.77;;;;;;;3.39;48.62;100921.37;4396096;32;33082;-85
2022/01/18 00:34:22;;;;;;;1.77;0.80;;;;;;;3.45;48.41;100920.53;4399965;32;32350;-85
2022/01/18 00:39:26;;;;;;;2.15;1.08;;;;;;;3.45;48.43;100946.63;4385217;32;33268;-85
2022/01/18 00:41:54;;;;;;;3.15;0.73;;;;;;;3.47;47.84;100961.47;4404478;32;33108;-86
2022/01/18 00:44:22;;;;;;;2.35;0.95;;;;;;;3.56;47.89;100953.66;4394763;32;32902;-86
2022/01/18 00:46:51;;;;;;;4.87;1.33;;;;;;;3.42;48.23;100954.44;4392674;32;34381;-86
2022/01/18 00:49:19;;;;;;;5.47;1.10;;;;;;;3.49;48.37;100956.22;4395298;32;32951;-86
2022/01/18 00:51:53;;;;;;;5.70;1.02;;;;;;;3.58;47.76;100961.50;4398925;32;33179;-87
2022/01/18 00:54:28;;;;;;;2.03;0.70;;;;;;;3.38;49.17;100971.00;4394248;32;34693;-86
2022/01/18 00:56:55;;;;;;;3.00;0.95;;;;;;;3.37;49.14;100967.53;4396004;32;33778;-85
2022/01/18 00:59:25;;;;;;;2.25;0.90;;;;;;;3.43;48.98;100970.16;4396122;32;33699;-85
2022/01/18 01:01:52;;;;;;;8.88;1.52;;;;;;;3.34;49.56;100981.41;4368683;32;32412;-85
2022/01/18 01:04:24;;;;;;;3.67;1.62;;;;;;;3.28;49.98;100976.19;4394024;32;32119;-85
2022/01/18 01:06:52;;;;;;;11.27;1.30;;;;;;;3.15;51.02;100986.53;4393882;32;32748;-85
2022/01/18 01:09:20;;;;;;;1.30;1.10;;;;;;;3.33;50.09;100995.34;4384400;32;32503;-85
2022/01/18 01:11:48;;;;;;;1.95;0.75;;;;;;;3.38;50.42;100992.75;4395996;32;33481;-85
2022/01/18 01:14:22;;;;;;;5.80;1.10;;;;;;;3.49;50.26;101000.63;4405496;32;32659;-85
2022/01/18 01:16:57;;;;;;;2.05;1.00;;;;;;;3.23;51.01;101004.00;4394339;32;34644;-86
2022/01/18 01:33:49;;;;;;;5.22;1.15;;;;;;;3.34;51.00;101012.75;4391249;32;34103;-85
2022/01/18 01:36:18;;;;;;;5.60;1.10;;;;;;;3.43;50.97;101011.06;4391609;32;33975;-85
2022/01/18 01:41:49;;;;;;;4.05;1.35;;;;;;;3.14;51.97;101022.22;4389927;32;32436;-85
2022/01/18 01:44:25;;;;;;;3.42;0.88;;;;;;;3.30;51.67;101020.56;4386342;32;33470;-85
2022/01/18 01:46:53;;;;;;;3.65;1.08;;;;;;;3.27;51.70;101025.75;4391509;32;33343;-85
2022/01/18 01:49:23;;;;;;;2.62;1.73;;;;;;;3.32;51.54;101024.94;4391989;32;33896;-84
2022/01/18 01:51:51;;;;;;;7.82;1.23;;;;;;;3.64;50.39;101021.56;4393763;32;32313;-84
2022/01/18 01:54:19;;;;;;;2.97;0.90;;;;;;;3.39;51.25;101025.81;4397741;32;33572;-83
2022/01/18 01:56:47;;;;;;;4.43;0.80;;;;;;;3.67;50.14;101023.34;4395449;32;34110;-83
2022/01/18 01:59:14;;;;;;;4.07;1.05;;;;;;;3.45;50.67;101023.22;4391097;32;33947;-83
2022/01/18 02:01:48;;;;;;;4.65;1.00;;;;;;;3.43;50.53;101026.72;4405128;32;32519;-83
2022/01/18 02:04:17;;;;;;;10.52;1.10;;;;;;;3.48;50.49;101031.09;4405496;32;34173;-83
2022/01/18 02:06:45;;;;;;;3.62;1.02;;;;;;;3.18;51.32;101034.41;4378319;32;33403;-83
2022/01/18 02:09:13;;;;;;;5.20;1.00;;;;;;;3.38;50.80;101038.88;4394766;32;33559;-84
2022/01/18 02:11:41;;;;;;;2.58;1.33;;;;;;;3.58;50.30;101039.84;4400670;32;33798;-87
2022/01/18 02:14:15;;;;;;;5.85;0.98;;;;;;;3.44;50.73;101049.34;4392576;32;34421;-86
2022/01/18 02:22:16;;;;;;;1.40;0.70;;;;;;;3.26;51.34;101047.50;4391958;32;35009;-86
2022/01/18 02:24:44;;;;;;;5.30;1.17;;;;;;;3.17;51.68;101048.31;4406447;32;34182;-86
2022/01/18 02:27:13;;;;;;;6.62;1.27;;;;;;;3.07;51.98;101049.12;4394459;32;32959;-86
2022/01/18 02:29:41;;;;;;;6.25;1.25;;;;;;;3.18;51.82;101046.56;4393165;32;33656;-86
2022/01/18 02:32:10;;;;;;;1.65;0.68;;;;;;;3.15;51.91;101043.97;4392866;32;34792;-86
2022/01/18 02:34:38;;;;;;;5.28;1.45;;;;;;;3.26;51.75;101042.28;4391829;32;33678;-84
2022/01/18 02:37:06;;;;;;;11.25;1.48;;;;;;;2.92;52.85;101043.78;4392352;32;34000;-84
2022/01/18 02:39:34;;;;;;;9.23;1.35;;;;;;;3.14;52.03;101040.47;4397947;32;33755;-84
2022/01/18 02:42:04;;;;;;;4.85;1.05;;;;;;;3.12;51.96;101046.53;4394229;32;33992;-85
2022/01/18 02:44:34;;;;;;;1.37;0.80;;;;;;;3.05;51.95;101040.41;4395931;32;33611;-85
2022/01/18 02:47:02;;;;;;;3.75;0.93;;;;;;;3.10;52.08;101043.06;4394281;32;33059;-85
2022/01/18 02:49:31;;;;;;;4.95;1.80;;;;;;;3.11;51.98;101050.00;4395856;32;32671;-85
2022/01/18 02:51:59;;;;;;;4.40;0.82;;;;;;;2.96;52.32;101040.34;4395806;32;34227;-86
2022/01/18 02:54:27;;;;;;;10.48;1.92;;;;;;;2.93;52.68;101056.84;4390491;32;34098;-85
2022/01/18 02:57:00;;;;;;;8.60;1.50;;;;;;;2.91;52.95;101061.19;4396265;32;33169;-86
2022/01/18 03:05:09;;;;;;;7.57;1.25;;;;;;;2.99;52.66;101067.34;4382023;32;33850;-84
2022/01/18 03:07:37;;;;;;;3.85;1.08;;;;;;;3.05;52.53;101074.34;4394444;32;32287;-84
2022/01/18 03:10:07;;;;;;;1.73;0.90;;;;;;;3.11;52.24;101086.56;4393717;32;33906;-84
2022/01/18 03:12:34;;;;;;;6.15;1.40;;;;;;;3.08;52.32;101083.03;4396013;32;33499;-85
2022/01/18 03:15:03;;;;;;;5.50;0.70;;;;;;;3.18;52.00;101089.22;4407934;32;32938;-83
2022/01/18 03:17:31;;;;;;;11.12;0.90;;;;;;;2.95;52.71;101102.09;4379395;32;32969;-83
2022/01/18 03:19:59;;;;;;;3.78;1.35;;;;;;;2.96;52.89;101109.06;4398877;32;34287;-83
2022/01/18 03:22:28;;;;;;;8.75;0.93;;;;;;;3.38;51.27;101112.84;4406073;32;33508;-83
2022/01/18 03:25:14;;;;;;;5.12;0.95;;;;;;;3.27;51.74;101112.75;4397900;32;32921;-84
2022/01/18 03:30:28;;;;;;;9.32;0.82;;;;;;;3.02;52.44;101134.31;4392370;32;33912;-83
2022/01/18 03:32:57;;;;;;;9.85;0.98;;;;;;;2.77;53.27;101128.87;4392494;32;33703;-83
2022/01/18 03:35:25;;;;;;;7.07;1.17;;;;;;;3.25;51.71;101138.00;4394783;32;33854;-83
2022/01/18 03:37:53;;;;;;;4.97;1.15;;;;;;;2.69;53.52;101156.63;4407641;32;33450;-83
2022/01/18 03:40:21;;;;;;;6.45;1.05;;;;;;;3.03;52.49;101149.09;4406630;32;33480;-85
2022/01/18 03:42:49;;;;;;;5.78;0.93;;;;;;;3.20;52.15;101155.34;4395468;32;33645;-84
2022/01/18 03:45:20;;;;;;;1.73;0.77;;;;;;;3.29;51.66;101160.66;4395769;32;34110;-84
2022/01/18 03:47:47;;;;;;;2.75;0.90;;;;;;;3.06;52.26;101164.81;4393942;32;32439;-84
2022/01/18 03:50:16;;;;;;;3.65;1.10;;;;;;;3.24;51.74;101157.12;4409247;32;32710;-84
2022/01/18 03:52:45;;;;;;;7.62;3.08;;;;;;;2.86;53.04;101163.75;4383006;32;33711;-84
2022/01/18 03:55:16;;;;;;;5.22;0.57;;;;;;;3.19;52.04;101158.84;4397303;32;34281;-85
2022/01/18 03:57:44;;;;;;;4.95;0.70;;;;;;;3.43;51.39;101167.72;4409059;32;32818;-85
2022/01/18 04:00:20;;;;;;;7.22;1.48;;;;;;;3.10;52.50;101174.41;4392081;32;33674;-85
2022/01/18 04:02:49;;;;;;;4.68;0.75;;;;;;;3.25;51.99;101164.09;4407800;32;33483;-86
2022/01/18 04:05:17;;;;;;;4.78;1.35;;;;;;;3.33;51.73;101167.66;4382707;32;32919;-86
2022/01/18 04:07:45;;;;;;;3.20;0.82;;;;;;;3.32;52.13;101175.44;4396335;32;32765;-85
2022/01/18 04:10:15;;;;;;;4.72;0.95;;;;;;;3.08;52.47;101186.56;4394829;32;33472;-85
2022/01/18 04:12:42;;;;;;;3.45;0.85;;;;;;;2.73;53.40;101194.91;4395782;32;34422;-85
2022/01/18 04:15:12;;;;;;;4.47;0.55;;;;;;;3.18;52.27;101182.28;4408522;32;34631;-85
2022/01/18 04:26:54;;;;;;;11.95;1.42;;;;;;;3.12;52.46;101200.50;4394754;32;32856;-85
2022/01/18 04:28:44;;;;;;;5.22;0.90;;;;;;;2.85;53.30;101214.16;4403704;32;32935;-85
2022/01/18 04:31:11;;;;;;;3.60;0.90;;;;;;;3.03;52.45;101211.72;4398017;32;33102;-85
2022/01/18 04:33:39;;;;;;;14.27;1.42;;;;;;;3.17;52.03;101197.06;4393803;32;33373;-85
2022/01/18 04:36:08;;;;;;;8.25;1.85;;;;;;;3.33;51.61;101204.19;4380059;32;33417;-84
2022/01/18 04:38:36;;;;;;;3.37;0.80;;;;;;;3.39;51.65;101212.94;4406824;32;32131;-84
2022/01/18 04:41:08;;;;;;;3.90;0.98;;;;;;;3.04;52.50;101211.78;4396049;32;34545;-85
2022/01/18 04:48:24;;;;;;;6.90;0.90;;;;;;;2.98;52.49;101218.66;4381463;32;32378;-85
2022/01/18 04:49:15;;;;;;;9.48;1.00;;;;;;;2.83;52.95;101229.81;4407633;32;32011;-83
2022/01/18 04:51:46;;;;;;;6.53;1.02;;;;;;;2.91;52.63;101235.97;4393812;32;34515;-84
2022/01/18 04:54:15;;;;;;;7.43;1.35;;;;;;;2.89;52.39;101227.25;4392235;32;33573;-84
2022/01/18 04:59:11;;;;;;;3.87;1.27;;;;;;;2.80;53.13;101241.09;4395270;32;32577;-84
2022/01/18 05:01:41;;;;;;;5.10;1.15;;;;;;;2.92;52.72;101242.06;4405733;32;34706;-83
2022/01/18 05:04:09;;;;;;;3.67;1.00;;;;;;;2.80;53.05;101248.91;4405834;32;36446;-83
2022/01/18 05:06:37;;;;;;;3.72;1.37;;;;;;;2.60;53.92;101239.97;4397477;32;34422;-84
2022/01/18 05:09:08;;;;;;;2.75;0.90;;;;;;;2.96;53.07;101246.47;4396155;32;33569;-84
2022/01/18 05:14:45;;;;;;;2.60;0.85;;;;;;;3.32;51.76;101249.44;4355894;32;32476;-84
2022/01/18 05:20:36;;;;;;;2.58;0.68;;;;;;;3.13;52.40;101241.41;4364482;32;32411;-84
2022/01/18 05:23:02;;;;;;;4.47;0.73;;;;;;;2.99;53.03;101234.34;4391025;32;34615;-83
2022/01/18 05:25:31;;;;;;;5.28;1.45;;;;;;;3.09;52.49;101235.31;4395068;32;33626;-83
2022/01/18 05:28:06;;;;;;;8.05;1.27;;;;;;;2.98;53.25;101236.91;4391690;32;33849;-83
2022/01/18 05:30:34;;;;;;;8.18;1.40;;;;;;;3.19;52.43;101238.88;4404320;32;32388;-84
2022/01/18 05:33:09;;;;;;;5.50;1.30;;;;;;;3.15;52.52;101248.41;4397018;32;33591;-84
2022/01/18 05:35:37;;;;;;;5.80;1.33;;;;;;;3.02;52.92;101256.97;4392640;32;33827;-83
2022/01/18 05:38:06;;;;;;;4.55;1.62;;;;;;;2.89;53.34;101262.91;4391858;32;32949;-84
2022/01/18 05:40:34;;;;;;;2.12;1.12;;;;;;;2.90;53.34;101260.31;4392628;32;32050;-85
2022/01/18 05:43:02;;;;;;;4.20;1.30;;;;;;;2.69;54.21;101276.59;4376880;32;34672;-84
2022/01/18 05:45:31;;;;;;;9.80;1.30;;;;;;;2.81;54.02;101281.97;4391179;32;33381;-84
2022/01/18 05:47:59;;;;;;;5.45;1.15;;;;;;;2.64;54.37;101283.47;4388565;32;34754;-84
2022/01/18 05:50:27;;;;;;;5.05;1.37;;;;;;;2.83;53.88;101275.03;4379164;32;32855;-83
2022/01/18 05:52:55;;;;;;;6.60;0.93;;;;;;;2.81;54.13;101283.69;4394488;32;32872;-84
2022/01/18 05:55:23;;;;;;;4.78;1.00;;;;;;;2.72;54.28;101281.84;4391878;32;33606;-85
2022/01/18 05:57:50;;;;;;;7.55;1.42;;;;;;;2.74;54.24;101287.94;4387494;32;34055;-84
2022/01/18 06:00:21;;;;;;;4.85;1.52;;;;;;;2.40;55.49;101288.38;4388929;32;32377;-85
2022/01/18 06:08:17;;;;;;;3.40;1.40;;;;;;;2.52;55.28;101299.00;4391316;32;34628;-85
2022/01/18 06:10:44;;;;;;;6.25;1.10;;;;;;;2.62;54.99;101306.06;4391784;32;32917;-85
2022/01/18 06:13:14;;;;;;;3.12;1.00;;;;;;;2.72;54.58;101307.94;4390272;32;33046;-85
2022/01/18 06:15:42;;;;;;;3.08;0.85;;;;;;;2.75;54.34;101310.59;4389979;32;33848;-85
2022/01/18 06:18:10;;;;;;;4.00;1.12;;;;;;;2.56;55.17;101314.69;4393332;32;33006;-85
2022/01/18 06:20:40;;;;;;;8.73;1.95;;;;;;;2.85;54.33;101318.50;4389548;32;33050;-85
2022/01/18 06:23:08;;;;;;;4.87;1.37;;;;;;;2.42;55.67;101313.62;4391916;32;33682;-88
2022/01/18 06:25:37;;;;;;;7.20;1.80;;;;;;;2.85;54.49;101318.50;4393502;32;33534;-88
2022/01/18 06:28:05;;;;;;;7.20;1.12;;;;;;;2.55;55.46;101315.53;4390983;32;33342;-88
2022/01/18 06:30:34;;;;;;;7.47;2.03;;;;;;;3.04;54.10;101304.84;4393657;32;33657;-88
2022/01/18 06:33:02;;;;;;;7.55;1.35;;;;;;;2.91;54.65;101303.81;4389294;32;32645;-87
2022/01/18 06:35:32;;;;;;;5.00;1.33;;;;;;;2.91;54.72;101314.25;4390397;32;34102;-88
2022/01/18 06:38:00;;;;;;;4.68;1.17;;;;;;;3.20;53.93;101309.34;4407662;32;34872;-88
2022/01/18 06:40:28;;;;;;;8.25;1.80;;;;;;;3.29;53.48;101306.84;4393993;32;33198;-88
2022/01/18 06:42:55;;;;;;;14.32;2.67;;;;;;;3.26;53.57;101322.47;4407602;32;33525;-88
2022/01/18 06:45:24;;;;;;;8.93;1.62;;;;;;;3.20;53.73;101322.41;4394370;32;33362;-88
2022/01/18 06:47:51;;;;;;;2.67;0.85;;;;;;;3.19;53.75;101331.09;4396367;32;33669;-88
2022/01/18 06:50:19;;;;;;;3.08;1.40;;;;;;;3.16;53.71;101331.06;4394241;32;33294;-88
2022/01/18 06:52:53;;;;;;;9.10;1.70;;;;;;;3.20;53.84;101343.28;4387714;32;33866;-88
2022/01/18 06:55:20;;;;;;;8.63;1.77;;;;;;;3.05;54.37;101338.78;4388645;32;33231;-86
2022/01/18 06:57:48;;;;;;;7.15;2.30;;;;;;;3.10;54.36;101346.66;4400374;32;32922;-87
2022/01/18 07:00:16;;;;;;;8.90;2.00;;;;;;;3.16;54.20;101345.84;4387781;32;33415;-87
2022/01/18 07:02:44;;;;;;;6.30;1.05;;;;;;;3.46;53.32;101348.75;4388190;32;33145;-87
2022/01/18 07:05:12;;;;;;;7.07;1.70;;;;;;;3.30;53.76;101352.09;4389537;32;32709;-87
2022/01/18 07:07:42;;;;;;;8.70;1.15;;;;;;;3.02;54.68;101353.50;4389773;32;32743;-87
2022/01/18 07:10:09;;;;;;;9.27;2.08;;;;;;;2.86;55.42;101346.38;4391403;32;32281;-86
2022/01/18 07:12:37;;;;;;;4.82;1.02;;;;;;;2.41;56.92;101347.50;4377448;32;33521;-86
2022/01/18 07:15:09;;;;;;;4.93;1.35;;;;;;;2.26;57.72;101345.53;4390407;32;33647;-87
2022/01/18 07:17:38;;;;;;;2.60;1.20;;;;;;;2.52;57.09;101351.16;4390993;32;33465;-87
2022/01/18 07:20:07;;;;;;;8.45;0.82;;;;;;;2.50;57.33;101343.28;4400778;32;33109;-86
2022/01/18 07:22:34;;;;;;;12.65;1.75;;;;;;;2.73;56.71;101346.19;4403255;32;34209;-87
2022/01/18 07:25:10;;;;;;;5.70;1.50;;;;;;;2.96;56.14;101353.44;4400116;32;33897;-86
2022/01/18 07:27:38;;;;;;;5.90;1.65;;;;;;;2.77;56.55;101347.12;4387570;32;32914;-87
2022/01/18 07:30:07;;;;;;;5.45;1.40;;;;;;;2.86;56.47;101351.59;4388673;32;32450;-87
2022/01/18 07:32:35;;;;;;;8.82;2.40;;;;;;;3.12;55.72;101344.94;4378933;32;32724;-87
2022/01/18 07:35:03;;;;;;;10.02;1.70;;;;;;;2.91;56.71;101347.28;4390002;32;32325;-87
2022/01/18 07:37:31;;;;;;;11.88;2.80;;;;;;;3.14;56.21;101339.75;4391638;32;32120;-87
2022/01/18 07:39:59;;;;;;;12.37;2.95;;;;;;;2.95;56.68;101346.47;4387863;32;32708;-87
2022/01/18 07:42:27;;;;;;;5.45;1.48;;;;;;;3.42;55.60;101339.19;4401366;32;33220;-87
2022/01/18 07:44:55;;;;;;;6.80;2.05;;;;;;;3.43;55.34;101338.31;4401137;32;34229;-87
2022/01/18 07:47:23;;;;;;;4.82;1.45;;;;;;;3.18;55.72;101347.62;4392870;32;33009;-87
2022/01/18 07:49:51;;;;;;;2.47;1.40;;;;;;;3.34;55.68;101357.38;4405056;32;33127;-87
2022/01/18 07:52:19;;;;;;;7.50;1.75;;;;;;;3.29;55.84;101361.66;4385452;32;32504;-87
2022/01/18 07:54:46;;;;;;;8.80;1.95;;;;;;;3.36;55.77;101353.88;4402759;32;32684;-87
2022/01/18 07:57:15;;;;;;;8.38;2.25;;;;;;;3.66;54.93;101369.88;4393306;32;33158;-87
2022/01/18 07:59:44;;;;;;;6.78;1.62;;;;;;;3.62;55.15;101373.31;4404295;32;31335;-87
2022/01/18 08:02:11;;;;;;;6.62;1.90;;;;;;;3.51;55.96;101382.75;4404836;32;33800;-87
2022/01/18 08:04:40;;;;;;;6.35;1.80;;;;;;;3.83;54.93;101389.19;4400394;32;32474;-87
2022/01/18 08:07:07;;;;;;;8.63;1.67;;;;;;;3.80;54.49;101386.56;4402797;32;33175;-87
2022/01/18 08:09:36;;;;;;;6.45;1.27;;;;;;;3.77;54.79;101390.88;4391611;32;34186;-87
2022/01/18 08:12:06;;;;;;;12.52;2.17;;;;;;;3.72;55.26;101387.34;4405418;32;34028;-87
2022/01/18 08:14:34;;;;;;;9.20;1.52;;;;;;;3.70;55.81;101392.53;4408622;32;35264;-87
2022/01/18 08:17:05;;;;;;;5.57;1.95;;;;;;;4.10;54.17;101392.91;4392642;32;33252;-87
2022/01/18 08:19:35;;;;;;;17.15;1.92;;;;;;;4.09;53.74;101396.41;4392709;32;33259;-87
2022/01/18 08:22:09;;;;;;;3.90;1.30;;;;;;;4.21;53.49;101409.53;4391085;32;32551;-87
2022/01/18 08:24:37;;;;;;;8.57;1.67;;;;;;;4.12;53.91;101409.47;4405548;32;33656;-91
2022/01/18 08:27:25;;;;;;;71.35;20.75;;;;;;;3.91;54.29;101422.38;4391789;32;32831;-91
2022/01/18 08:29:53;;;;;;;44.15;17.27;;;;;;;3.92;54.78;101424.09;4408219;32;34202;-90
2022/01/18 08:32:22;;;;;;;18.35;7.45;;;;;;;3.84;54.53;101430.13;4393958;32;31956;-91
2022/01/18 08:34:50;;;;;;;16.00;5.72;;;;;;;3.96;54.63;101436.34;4392104;32;33173;-90
2022/01/18 08:37:24;;;;;;;14.48;6.90;;;;;;;4.26;53.85;101430.50;4394594;32;32606;-89
2022/01/18 08:39:56;;;;;;;13.65;5.50;;;;;;;4.44;53.18;101424.53;4386564;32;32013;-89
2022/01/18 08:42:23;;;;;;;13.10;2.50;;;;;;;4.45;53.25;101434.13;4388392;32;34305;-88
2022/01/18 08:44:51;;;;;;;7.90;2.65;;;;;;;4.67;52.51;101432.56;4388214;32;32557;-88
2022/01/18 08:47:20;;;;;;;3.92;1.27;;;;;;;4.38;52.83;101441.06;4379797;32;32690;-88
2022/01/18 08:49:48;;;;;;;15.23;2.67;;;;;;;4.47;52.87;101438.53;4401570;32;33994;-89
2022/01/18 08:52:16;;;;;;;10.25;1.95;;;;;;;4.59;52.68;101443.84;4403768;32;33231;-86
2022/01/18 08:54:43;;;;;;;9.60;2.10;;;;;;;4.77;52.12;101448.31;4403743;32;33202;-87
2022/01/18 08:57:12;;;;;;;12.55;3.83;;;;;;;4.37;53.10;101444.56;4388074;32;32335;-87
2022/01/18 08:59:41;;;;;;;9.15;2.70;;;;;;;4.17;54.37;101446.09;4392236;32;31969;-87
2022/01/18 09:02:11;;;;;;;8.85;2.00;;;;;;;4.71;52.47;101448.28;4389760;32;34460;-87
2022/01/18 09:04:39;;;;;;;7.57;2.50;;;;;;;4.66;51.87;101447.37;4388213;32;34701;-87
2022/01/18 09:07:09;;;;;;;7.87;2.47;;;;;;;4.73;52.00;101461.38;4397449;32;33647;-88
2022/01/18 09:09:40;;;;;;;5.50;1.80;;;;;;;4.50;53.04;101459.47;4391478;32;32112;-87
2022/01/18 09:12:10;;;;;;;3.12;2.00;;;;;;;4.85;51.49;101453.63;4405268;32;33229;-87
2022/01/18 09:14:39;;;;;;;10.73;2.97;;;;;;;4.75;51.41;101455.31;4392328;32;32305;-87
2022/01/18 09:17:06;;;;;;;7.47;2.53;;;;;;;4.62;52.53;101467.41;4391902;32;34305;-87
2022/01/18 09:19:35;;;;;;;4.95;1.80;;;;;;;5.18;50.93;101452.91;4391992;32;35088;-86
2022/01/18 09:22:03;;;;;;;4.82;1.90;;;;;;;5.24;50.61;101458.19;4393799;32;33253;-87
2022/01/18 09:24:31;;;;;;;5.35;1.05;;;;;;;5.19;50.16;101470.38;4388675;32;33163;-87
2022/01/18 09:27:00;;;;;;;5.55;2.15;;;;;;;5.28;50.12;101475.66;4391652;32;33847;-87
2022/01/18 09:29:29;;;;;;;8.60;2.33;;;;;;;5.25;50.88;101487.84;4393258;32;33070;-87
2022/01/18 09:31:57;;;;;;;13.77;1.98;;;;;;;5.29;50.87;101493.12;4404213;32;33084;-86
2022/01/18 09:34:25;;;;;;;11.93;3.15;;;;;;;5.71;49.04;101486.31;4390120;32;30604;-87
2022/01/18 09:36:53;;;;;;;8.70;2.80;;;;;;;5.58;49.36;101481.91;4391679;32;32896;-86
2022/01/18 09:39:20;;;;;;;10.30;2.45;;;;;;;5.54;49.73;101488.00;4392281;32;32184;-87
2022/01/18 09:41:51;;;;;;;8.75;2.42;;;;;;;5.75;49.46;101482.84;4390173;32;33743;-87
2022/01/18 09:44:21;;;;;;;6.82;2.90;;;;;;;5.90;48.73;101480.25;4405077;32;31162;-87
2022/01/18 09:46:50;;;;;;;6.15;2.53;;;;;;;5.79;49.68;101484.59;4391864;32;32448;-88
2022/01/18 09:49:18;;;;;;;7.93;2.33;;;;;;;5.97;48.78;101472.41;4399968;32;32334;-87
2022/01/18 09:51:46;;;;;;;4.57;1.33;;;;;;;5.97;48.25;101468.03;4394086;32;33793;-87
2022/01/18 09:54:14;;;;;;;7.68;2.00;;;;;;;6.09;47.63;101488.19;4391550;32;34463;-87
2022/01/18 09:56:42;;;;;;;12.82;3.60;;;;;;;5.93;48.05;101478.53;4387818;32;33730;-87
2022/01/18 09:59:10;;;;;;;5.40;2.45;;;;;;;6.43;46.58;101481.22;4402590;32;33302;-86
2022/01/18 10:01:38;;;;;;;10.07;2.03;;;;;;;6.42;46.48;101482.09;4390226;32;33105;-87
2022/01/18 10:04:22;;;;;;;8.52;2.12;;;;;;;6.11;47.91;101482.06;4391795;32;33231;-87
2022/01/18 10:06:56;;;;;;;6.82;1.37;;;;;;;6.18;47.42;101492.56;4381635;32;34397;-87
2022/01/18 10:09:25;;;;;;;10.57;1.90;;;;;;;6.18;46.29;101482.09;4403384;32;33471;-87
2022/01/18 10:12:11;;;;;;;6.72;2.45;;;;;;;5.73;48.37;101488.94;4404937;32;33845;-86
2022/01/18 10:15:00;;;;;;;6.43;2.58;;;;;;;6.03;47.33;101480.28;4391508;32;33740;-87
2022/01/18 10:17:32;;;;;;;8.93;1.80;;;;;;;6.37;46.45;101487.34;4402876;32;33450;-87
2022/01/18 10:20:13;;;;;;;8.85;2.37;;;;;;;6.20;46.43;101499.56;4401172;32;32340;-87
2022/01/18 10:22:42;;;;;;;7.93;1.75;;;;;;;5.75;48.37;101502.94;4404146;32;32713;-87
2022/01/18 10:25:22;;;;;;;3.72;1.67;;;;;;;6.23;46.67;101502.19;4392368;32;34948;-87
2022/01/18 10:27:53;;;;;;;10.48;4.22;;;;;;;6.24;47.62;101498.69;4392772;32;33026;-87
2022/01/18 10:30:33;;;;;;;6.28;2.12;;;;;;;6.44;45.90;101498.69;4403879;32;33944;-87
2022/01/18 10:33:13;;;;;;;8.05;3.00;;;;;;;6.77;45.38;101507.44;4403105;32;33762;-87
2022/01/18 10:36:11;;;;;;;6.45;1.83;;;;;;;6.72;45.26;101499.56;4393956;32;33409;-87
2022/01/18 10:38:43;;;;;;;6.97;2.05;;;;;;;6.64;45.32;101498.69;4389949;32;33515;-87
2022/01/18 10:41:20;;;;;;;;;;;;;;;6.48;45.44;101482.09;4404971;32;34371;-86
2022/01/18 10:44:05;;;;;;;9.93;2.40;;;;;;;6.31;46.01;101484.69;4390500;32;33934;-87
2022/01/18 10:46:39;;;;;;;14.20;2.67;;;;;;;6.45;46.41;101481.19;4391191;32;32854;-89
2022/01/18 10:49:08;;;;;;;13.77;2.83;;;;;;;6.33;46.34;101480.34;4383398;32;31765;-89
2022/01/18 10:51:38;;;;;;;2.95;1.58;;;;;;;6.32;45.56;101481.22;4391992;32;33669;-85
2022/01/18 10:54:09;;;;;;;5.90;2.10;;;;;;;6.23;45.87;101489.06;4378313;32;33527;-84
2022/01/18 10:56:45;;;;;;;7.45;1.90;;;;;;;6.52;45.07;101475.97;4389787;32;33755;-84
2022/01/18 10:59:40;;;;;;;6.25;1.60;;;;;;;6.35;45.30;101481.19;4404007;32;34548;-85
2022/01/18 11:02:19;;;;;;;4.65;1.80;;;;;;;6.35;44.84;101483.81;4377464;32;33516;-85
2022/01/18 11:04:50;;;;;;;4.93;1.75;;;;;;;6.07;46.50;101482.03;4401902;32;34324;-85
2022/01/18 11:07:21;;;;;;;2.83;1.37;;;;;;;6.39;45.13;101482.94;4390283;32;33456;-85
2022/01/18 11:09:50;;;;;;;7.47;1.55;;;;;;;6.36;45.87;101482.06;4401651;32;34106;-85
2022/01/18 11:12:20;;;;;;;8.75;2.72;;;;;;;6.65;44.93;101489.97;4391533;32;31523;-86
2022/01/18 11:15:00;;;;;;;3.10;1.62;;;;;;;7.07;43.69;101488.13;4402672;32;33022;-85
2022/01/18 11:17:27;;;;;;;6.50;1.62;;;;;;;6.96;43.71;101500.41;4391368;32;32834;-85
2022/01/18 11:19:57;;;;;;;10.55;1.70;;;;;;;7.01;43.84;101498.66;4396213;32;33558;-85
2022/01/18 11:22:27;;;;;;;5.47;1.73;;;;;;;6.60;44.53;101502.22;4405880;32;30362;-85
2022/01/18 11:24:58;;;;;;;12.68;1.80;;;;;;;6.40;45.08;101494.31;4390114;32;33128;-86
2022/01/18 11:27:29;;;;;;;3.87;1.20;;;;;;;6.39;45.13;101488.19;4392508;32;32849;-85
2022/01/18 11:29:57;;;;;;;7.95;1.62;;;;;;;6.53;44.20;101493.47;4404957;32;32889;-89
2022/01/18 11:32:27;;;;;;;4.43;1.83;;;;;;;6.77;44.17;101502.19;4394672;32;32636;-89
2022/01/18 11:34:58;;;;;;;12.52;1.37;;;;;;;6.87;44.23;101496.06;4391810;32;32213;-89
2022/01/18 11:37:54;;;;;;;9.18;1.85;;;;;;;7.04;43.94;101496.03;4393798;32;33405;-91
2022/01/18 11:40:43;;;;;;;7.18;2.12;;;;;;;6.79;43.27;101488.22;4399974;32;33088;-91
2022/01/18 11:43:11;;;;;;;8.95;1.55;;;;;;;6.71;44.38;101500.44;4383149;32;32858;-90
2022/01/18 11:45:42;;;;;;;7.45;1.92;;;;;;;6.74;44.13;101510.06;4382592;32;32980;-91
2022/01/18 11:48:14;;;;;;;3.97;1.20;;;;;;;7.00;43.93;101516.16;4409354;32;34122;-90
2022/01/18 11:50:46;;;;;;;;;;;;;;;6.68;43.53;101522.31;4404362;32;32818;-91
2022/01/18 11:53:27;;;;;;;6.15;1.17;;;;;;;6.36;44.78;101514.47;4401965;32;32355;-90
2022/01/18 11:56:14;;;;;;;7.45;1.45;;;;;;;6.43;44.64;101530.19;4403990;32;33730;-92
2022/01/18 11:59:14;;;;;;;8.15;1.37;;;;;;;6.53;44.62;101519.69;4366814;32;33511;-91
2022/01/18 12:01:59;;;;;;;5.40;1.17;;;;;;;6.02;46.56;101510.88;4377169;32;32826;-90
2022/01/18 12:04:54;;;;;;;8.80;1.95;;;;;;;6.58;44.81;101509.19;4374751;32;33455;-91
2022/01/18 12:07:34;;;;;;;6.50;1.73;;;;;;;6.36;45.14;101493.47;4394895;32;33371;-91
2022/01/18 12:10:45;;;;;;;8.32;1.27;;;;;;;6.43;44.27;101496.09;4415774;32;32536;-90
2022/01/18 12:13:34;;;;;;;5.75;1.65;;;;;;;6.38;44.82;101496.94;4376124;32;33401;-93
2022/01/18 12:16:22;;;;;;;2.22;1.00;;;;;;;6.35;44.12;101506.56;4362878;32;32070;-92
2022/01/18 12:19:14;;;;;;;10.73;1.65;;;;;;;6.39;44.42;101498.69;4414082;32;33297;-92
2022/01/18 12:21:55;;;;;;;5.57;1.45;;;;;;;5.94;45.07;101499.53;4396426;32;34122;-92
2022/01/18 12:24:47;;;;;;;12.55;1.37;;;;;;;5.89;45.70;101509.09;4389603;32;33039;-91
2022/01/18 12:27:29;;;;;;;7.75;1.83;;;;;;;6.02;45.99;101507.38;4377241;32;32703;-93
2022/01/18 12:30:40;;;;;;;6.47;1.55;;;;;;;6.21;45.16;101509.16;4398731;32;33054;-93
2022/01/18 12:33:42;;;;;;;6.95;1.52;;;;;;;6.33;44.62;101513.56;4387441;32;33933;-91
2022/01/18 12:36:34;;;;;;;11.90;2.17;;;;;;;6.30;45.38;101517.06;4406417;32;35698;-93
2022/01/18 12:39:13;;;;;;;4.03;1.83;;;;;;;6.53;44.58;101516.19;4365781;32;32509;-93
2022/01/18 12:42:20;;;;;;;8.30;1.60;;;;;;;6.61;44.01;101517.09;4377806;32;33048;-92
2022/01/18 12:45:02;;;;;;;10.85;1.60;;;;;;;6.64;44.26;101528.44;4410521;32;34697;-92
2022/01/18 12:48:04;;;;;;;5.80;1.92;;;;;;;6.44;44.80;101537.19;4375278;32;33570;-91
2022/01/18 12:50:46;;;;;;;7.90;1.60;;;;;;;6.71;44.75;101526.72;4355449;32;32211;-92
2022/01/18 12:53:39;;;;;;;8.25;1.65;;;;;;;6.79;44.12;101535.47;4358695;32;32605;-91
2022/01/18 12:56:19;;;;;;;3.70;1.40;;;;;;;6.22;46.11;101531.03;4378613;32;32767;-92
2022/01/18 12:59:10;;;;;;;7.25;1.87;;;;;;;6.73;44.28;101519.69;4370724;32;32825;-91
2022/01/18 13:01:50;;;;;;;6.37;1.42;;;;;;;6.43;45.12;101530.19;4356368;32;33269;-92
2022/01/18 13:04:57;;;;;;;5.12;1.92;;;;;;;6.16;45.87;101530.12;4381906;32;33610;-92